Погода Чкаловона 2 недели

Гомельская область, Белоруссия

24 июля-06 августа
  • 24июля
    Сегодня
    +15°
    +26°
    Ясно и безоблачно
    ВремяПогодаТемператураВлажностьДавлениеВетер, м/сВероятность осадков
    00:00Ясно и безоблачно+19°C87 %747 мм0.8 м/с2 %
    03:00Ясно и безоблачно+18°C92 %747 мм0.9 м/с2 %
    06:00Ясно и безоблачно+17°C94 %747 мм0.8 м/с2 %
    09:00Ясно и безоблачно+20°C73 %748 мм1.8 м/с2 %
    12:00Ясно и безоблачно+24°C50 %747 мм2.5 м/с8 %
    15:00Ясно и безоблачно+26°C42 %747 мм2.6 м/с5 %
    18:00Ясно и безоблачно+26°C41 %746 мм3.0 м/с2 %
    21:00Ясно и безоблачно+22°C58 %746 мм1.4 м/с2 %
  • 25июля
    Четверг
    +16°
    +27°
    Облачно с прояснениями
    ВремяПогодаТемператураВлажностьДавлениеВетер, м/сВероятность осадков
    00:00Ясно и безоблачно+19°C63 %746 мм0.7 м/с2 %
    03:00Ясно и безоблачно+17°C73 %746 мм0.9 м/с2 %
    06:00Ясно и безоблачно+16°C77 %745 мм0.7 м/с2 %
    09:00Практически безоблачно+21°C56 %746 мм1.4 м/с2 %
    12:00Облачно с прояснениями+25°C38 %746 мм2.4 м/с2 %
    15:00Облачно с прояснениями+27°C37 %745 мм2.3 м/с2 %
    18:00Пасмурно, сплошная облачность+26°C38 %744 мм2.5 м/с2 %
    21:00Облачно с прояснениями+24°C55 %745 мм1.4 м/с2 %
  • 26июля
    Пятница
    +16°
    +28°
    Ясно и безоблачно
    ВремяПогодаТемператураВлажностьДавлениеВетер, м/сВероятность осадков
    00:00Небольшая облачность+20°C64 %745 мм0.7 м/с2 %
    03:00Ясно и безоблачно+18°C76 %745 мм0.8 м/с2 %
    06:00Практически безоблачно+17°C79 %745 мм0.6 м/с2 %
    09:00Практически безоблачно+22°C60 %746 мм1.2 м/с2 %
    12:00Небольшая облачность+27°C37 %747 мм1.8 м/с3 %
    15:00Ясно и безоблачно+28°C38 %747 мм2.0 м/с8 %
    18:00Небольшая облачность+27°C39 %747 мм2.5 м/с18 %
    21:00Облачно с прояснениями+24°C63 %748 мм1.4 м/с8 %
  • 27июля
    Суббота
    +18°
    +29°
    Практически безоблачно
    ВремяПогодаТемператураВлажностьДавлениеВетер, м/сВероятность осадков
    00:00Ясно и безоблачно+21°C74 %749 мм0.8 м/с2 %
    03:00Ясно и безоблачно+19°C89 %749 мм1.0 м/с2 %
    06:00Ясно и безоблачно+18°C94 %750 мм0.5 м/с2 %
    09:00Практически безоблачно+21°C67 %751 мм0.9 м/с4 %
    12:00Практически безоблачно+24°C46 %751 мм1.1 м/с3 %
    15:00Практически безоблачно+26°C44 %751 мм1.2 м/с10 %
    18:00Ясно и безоблачно+27°C39 %751 мм2.3 м/с20 %
    21:00Облачно с прояснениями+24°C58 %751 мм1.1 м/с6 %
  • 28июля
    Воскресенье
    +20°
    +31°
    Облачно с прояснениями
    ВремяПогодаТемператураВлажностьДавлениеВетер, м/сВероятность осадков
    00:00Ясно и безоблачно+23°C61 %752 мм0.6 м/с2 %
    03:00Ясно и безоблачно+20°C66 %752 мм0.9 м/с2 %
    06:00Ясно и безоблачно+18°C69 %752 мм0.5 м/с2 %
    09:00Облачно с прояснениями+22°C57 %752 мм1.2 м/с2 %
    12:00Небольшая облачность+27°C46 %752 мм2.2 м/с5 %
    15:00Облачно с прояснениями+30°C40 %751 мм2.7 м/с9 %
    18:00Практически безоблачно+30°C41 %750 мм3.0 м/с9 %
    21:00Ясно и безоблачно+26°C53 %750 мм1.4 м/с8 %
Мы используем cookies
Соглашаюсь